Date,TemperatureHighF,TemperatureAvgF,TemperatureLowF,DewpointHighF,DewpointAvgF,DewpointLowF,HumidityHigh,HumidityAvg,HumidityLow,PressureMaxIn,PressureMinIn,WindSpeedMaxMPH,WindSpeedAvgMPH,GustSpeedMaxMPH,PrecipitationSumIn
2013-3-1,71.8,48.6,28.4,29.0,22.0,15.0,61,38,19,0.00,0.00,9,2,13,0.00
2013-3-2,71.3,49.7,30.3,27.0,22.0,16.0,61,37,19,0.00,0.00,14,3,17,0.00
2013-3-3,69.6,54.1,40.6,34.0,27.8,20.0,60,38,23,0.00,0.00,27,6,33,0.00
2013-3-4,68.4,51.2,30.3,30.0,23.5,15.0,76,39,13,0.00,0.00,10,3,17,0.00
2013-3-5,69.1,52.4,30.3,29.0,22.0,14.0,56,33,17,0.00,0.00,26,8,34,0.00
2013-3-6,65.4,51.9,31.3,28.0,16.8,11.0,49,27,13,0.00,0.00,27,7,33,0.00
2013-3-7,54.2,42.0,27.8,29.0,21.7,12.0,66,46,28,0.00,0.00,15,5,24,0.00
2013-3-8,53.6,43.1,35.2,31.0,26.5,20.0,77,54,32,0.00,0.00,23,6,30,0.00
2013-3-9,58.3,44.5,28.2,24.0,17.5,6.0,70,37,21,0.00,0.00,22,6,28,0.00
2013-3-10,68.4,46.4,23.4,17.0,9.7,3.0,41,25,11,0.00,0.00,12,3,13,0.00
2013-3-11,74.5,49.7,25.2,24.0,13.4,6.0,45,26,12,0.00,0.00,11,2,14,0.00
2013-3-12,77.3,53.6,30.9,26.0,17.5,9.0,49,27,12,0.00,0.00,7,2,14,0.00
2013-3-13,79.4,56.4,31.9,27.0,19.7,12.0,49,27,12,0.00,0.00,17,3,17,0.00
2013-3-14,74.5,56.4,34.5,29.0,23.4,16.0,52,30,18,0.00,0.00,6,2,9,0.00
2013-3-15,79.6,60.0,39.0,30.0,22.3,17.0,42,26,10,0.00,0.00,16,3,19,0.00
2013-3-16,76.8,58.8,35.5,27.0,21.5,15.0,53,27,10,0.00,0.00,22,6,25,0.00
2013-3-17,73.8,55.6,30.8,25.0,16.1,8.0,49,25,8,0.00,0.00,20,5,27,0.00
2013-3-18,71.7,54.7,27.6,32.0,19.3,11.0,53,28,13,0.00,0.00,15,3,24,0.00
2013-3-19,72.4,59.7,41.8,33.0,29.9,26.0,56,34,21,0.00,0.00,10,3,19,0.00
2013-3-20,72.1,58.1,44.5,37.0,27.7,18.0,55,33,16,0.00,0.00,22,5,42,0.00
2013-3-21,73.1,54.3,32.7,25.0,16.7,7.0,47,26,8,0.00,0.00,22,6,31,0.00
2013-3-22,69.0,53.1,37.8,21.0,10.0,-2.0,41,21,9,0.00,0.00,22,8,37,0.00
2013-3-23,70.4,49.3,20.7,14.0,5.2,-4.0,35,18,9,0.00,0.00,19,4,25,0.00
2013-3-24,72.2,49.6,25.9,29.0,14.6,2.0,44,26,16,0.00,0.00,11,3,18,0.00
2013-3-25,74.3,50.7,29.6,27.0,14.6,7.0,49,27,10,0.00,0.00,9,2,20,0.00
2013-3-26,72.1,53.2,31.2,29.0,18.9,6.0,49,27,17,0.00,0.00,12,2,18,0.00
2013-3-27,72.9,51.8,32.5,32.0,26.3,21.0,66,41,18,0.00,0.00,9,2,15,0.00
2013-3-28,72.7,54.8,34.4,34.0,28.4,23.0,66,40,18,0.00,0.00,17,4,27,0.00
2013-3-29,76.0,55.7,35.4,36.0,28.9,24.0,66,39,19,0.00,0.00,12,2,15,0.00
2013-3-30,75.9,59.4,38.3,35.0,29.1,24.0,59,34,20,0.00,0.00,16,4,26,0.00
2013-3-31,66.9,58.1,50.2,42.0,29.1,18.0,68,35,17,0.00,0.00,34,10,42,0.06